Time;durP1;ratioP1;P1;durP2;ratioP2;P2;SDS_P1;SDS_P2;PMS_P1;PMS_P2;Temp;Humidity;BMP_temperature;BMP_pressure;BME280_temperature;BME280_humidity;BME280_pressure;Samples;Min_cycle;Max_cycle;Signal;HPM_P1;HPM_P2
2022/02/12 00:00:39;;;;;;;0.47;0.47;;;;;;;6.72;100.00;100863.91;4958807;28;20057;-83
2022/02/12 00:03:05;;;;;;;3.80;0.80;;;;;;;6.78;100.00;100876.72;4990334;28;20061;-83
2022/02/12 00:05:31;;;;;;;1.50;0.75;;;;;;;6.75;100.00;100831.59;4970021;28;20056;-82
2022/02/12 00:07:58;;;;;;;2.45;0.90;;;;;;;6.78;100.00;100866.03;4988010;28;20472;-83
2022/02/12 00:10:25;;;;;;;0.63;0.63;;;;;;;6.78;100.00;100849.97;4988801;28;20042;-84
2022/02/12 00:12:51;;;;;;;1.88;0.77;;;;;;;6.78;100.00;100839.28;5011843;28;20080;-85
2022/02/12 00:15:17;;;;;;;0.95;0.77;;;;;;;6.81;100.00;100855.03;4972265;28;20065;-83
2022/02/12 00:17:44;;;;;;;3.35;0.90;;;;;;;6.81;100.00;100836.31;4977042;28;20041;-85
2022/02/12 00:20:10;;;;;;;0.85;0.85;;;;;;;6.74;100.00;100820.03;4957176;28;20034;-85
2022/02/12 00:22:36;;;;;;;2.63;0.90;;;;;;;6.81;100.00;100836.31;4989933;28;20034;-85
2022/02/12 00:25:02;;;;;;;1.45;0.77;;;;;;;6.82;100.00;100814.78;4970309;28;20393;-85
2022/02/12 00:27:28;;;;;;;6.72;0.90;;;;;;;6.83;100.00;100831.69;4990393;28;20040;-83
2022/02/12 00:29:53;;;;;;;3.45;1.00;;;;;;;6.72;100.00;100802.47;4990261;28;20971;-83
2022/02/12 00:32:19;;;;;;;1.45;0.80;;;;;;;6.87;100.00;100821.50;4971792;28;20524;-83
2022/02/12 00:34:45;;;;;;;2.45;1.00;;;;;;;6.88;100.00;100801.78;4953464;28;20029;-83
2022/02/12 00:37:10;;;;;;;2.28;0.70;;;;;;;6.79;100.00;100792.84;4990654;28;20038;-83
2022/02/12 00:39:36;;;;;;;2.47;0.90;;;;;;;6.84;100.00;100795.94;4959652;28;20033;-82
2022/02/12 00:42:02;;;;;;;1.45;0.82;;;;;;;6.83;100.00;100786.25;4988383;28;20033;-82
2022/02/12 00:44:27;;;;;;;0.80;0.77;;;;;;;6.88;100.00;100805.34;4989455;28;20044;-83
2022/02/12 00:46:55;;;;;;;4.30;1.00;;;;;;;6.90;100.00;100795.31;5005721;28;20030;-84
2022/02/12 00:49:21;;;;;;;4.28;0.98;;;;;;;6.87;100.00;100773.41;4989403;28;20040;-81
2022/02/12 00:51:47;;;;;;;3.58;1.20;;;;;;;6.88;100.00;100786.63;4972650;28;20396;-84
2022/02/12 00:54:13;;;;;;;5.63;1.45;;;;;;;6.87;100.00;100768.88;4987688;28;20435;-84
2022/02/12 00:56:38;;;;;;;0.55;0.55;;;;;;;6.89;100.00;100784.78;4958102;28;20042;-82
2022/02/12 00:59:04;;;;;;;2.65;0.82;;;;;;;6.89;100.00;100782.13;4975125;28;20034;-84
2022/02/12 01:01:32;;;;;;;3.78;0.95;;;;;;;6.88;100.00;100759.91;4988931;28;20526;-84
2022/02/12 01:03:57;;;;;;;2.22;0.80;;;;;;;6.93;100.00;100768.31;4966934;28;20136;-85
2022/02/12 01:06:23;;;;;;;2.33;1.00;;;;;;;6.93;100.00;100764.75;4967208;28;20048;-86
2022/02/12 01:08:48;;;;;;;3.58;0.93;;;;;;;6.93;100.00;100741.56;4989119;28;20045;-84
2022/02/12 01:11:14;;;;;;;1.88;0.93;;;;;;;6.94;100.00;100753.94;4995758;28;20464;-85
2022/02/12 01:13:40;;;;;;;2.28;0.65;;;;;;;6.92;100.00;100745.22;4989947;28;20030;-85
2022/02/12 01:16:06;;;;;;;2.92;0.93;;;;;;;6.97;100.00;100742.09;4956346;28;20436;-84
2022/02/12 01:18:32;;;;;;;2.53;0.80;;;;;;;6.98;100.00;100739.25;4990043;28;20060;-84
2022/02/12 01:20:58;;;;;;;0.40;0.40;;;;;;;6.97;100.00;100732.25;4985997;28;20072;-84
2022/02/12 01:23:24;;;;;;;0.68;0.55;;;;;;;7.00;100.00;100731.94;4987642;28;20057;-83
2022/02/12 01:25:50;;;;;;;2.90;0.63;;;;;;;7.01;100.00;100722.94;4973024;28;20045;-83
2022/02/12 01:28:17;;;;;;;2.08;0.75;;;;;;;7.02;100.00;100719.25;4984654;28;20026;-84
2022/02/12 01:30:43;;;;;;;0.80;0.60;;;;;;;7.04;100.00;100714.59;4972046;28;20029;-86
2022/02/12 01:33:09;;;;;;;0.90;0.73;;;;;;;7.00;100.00;100702.53;5004783;28;20029;-84
2022/02/12 01:35:35;;;;;;;0.60;0.60;;;;;;;7.05;100.00;100697.56;4982984;28;20034;-84
2022/02/12 01:38:00;;;;;;;1.50;0.77;;;;;;;7.05;100.00;100686.84;4956400;28;20353;-84
2022/02/12 01:40:27;;;;;;;0.80;0.60;;;;;;;7.11;100.00;100687.22;4951831;28;20472;-82
2022/02/12 01:42:53;;;;;;;1.40;1.10;;;;;;;6.92;100.00;100645.47;4987207;28;20029;-84
2022/02/12 01:45:18;;;;;;;1.00;0.60;;;;;;;7.08;100.00;100674.19;4977360;28;20049;-84
2022/02/12 01:47:44;;;;;;;0.50;0.50;;;;;;;7.09;100.00;100679.34;4988117;28;20034;-83
2022/02/12 01:50:10;;;;;;;0.85;0.70;;;;;;;7.09;100.00;100659.81;4951540;28;20392;-84
2022/02/12 01:52:37;;;;;;;0.65;0.60;;;;;;;7.09;100.00;100660.63;4978810;28;20431;-84
2022/02/12 01:55:06;;;;;;;0.70;0.60;;;;;;;7.14;100.00;100652.16;4985595;28;20041;-85
2022/02/12 01:57:32;;;;;;;1.98;0.80;;;;;;;7.10;100.00;100643.63;4974783;28;20041;-86
2022/02/12 01:59:58;;;;;;;1.77;0.60;;;;;;;7.17;100.00;100638.47;4951174;28;20089;-84
2022/02/12 02:02:24;;;;;;;1.13;0.70;;;;;;;7.19;100.00;100636.50;4985798;28;20036;-86
2022/02/12 02:04:49;;;;;;;2.47;0.80;;;;;;;7.18;100.00;100635.66;4986997;28;20036;-86
2022/02/12 02:07:15;;;;;;;0.65;0.60;;;;;;;7.17;100.00;100625.97;4973135;28;20033;-86
2022/02/12 02:09:41;;;;;;;2.28;0.65;;;;;;;7.23;100.00;100640.53;4982580;28;20464;-84
2022/02/12 02:12:07;;;;;;;0.40;0.40;;;;;;;7.20;100.00;100630.16;4989277;28;20038;-84
2022/02/12 02:14:35;;;;;;;1.70;0.70;;;;;;;7.24;100.00;100613.63;4955317;28;21888;-85
2022/02/12 02:17:01;;;;;;;0.50;0.50;;;;;;;7.24;100.00;100620.81;4969655;28;20038;-85
2022/02/12 02:19:27;;;;;;;0.50;0.50;;;;;;;7.06;100.00;100575.41;5002773;28;20515;-85
2022/02/12 02:21:55;;;;;;;1.05;0.73;;;;;;;7.26;100.00;100608.97;4967994;28;20029;-87
2022/02/12 02:24:21;;;;;;;0.50;0.50;;;;;;;7.25;100.00;100606.44;5000854;28;20549;-86
2022/02/12 02:26:46;;;;;;;0.60;0.60;;;;;;;7.29;100.00;100598.94;4987078;28;20157;-86
2022/02/12 02:29:12;;;;;;;0.40;0.40;;;;;;;7.25;100.00;100599.28;4970829;28;20035;-85
2022/02/12 02:31:40;;;;;;;1.73;0.70;;;;;;;7.27;100.00;100594.59;4972775;28;20530;-84
2022/02/12 02:34:08;;;;;;;0.75;0.60;;;;;;;7.30;100.00;100592.59;4974946;28;20034;-82
2022/02/12 02:36:33;;;;;;;0.50;0.50;;;;;;;7.31;100.00;100592.44;4988911;28;20045;-86
2022/02/12 02:38:59;;;;;;;0.63;0.63;;;;;;;7.33;100.00;100581.56;4957756;28;20033;-86
2022/02/12 02:41:25;;;;;;;0.68;0.52;;;;;;;7.33;100.00;100571.75;4957649;28;20103;-86
2022/02/12 02:43:51;;;;;;;2.65;0.73;;;;;;;7.34;100.00;100572.56;4986119;28;21478;-86
2022/02/12 02:46:17;;;;;;;0.63;0.60;;;;;;;7.29;100.00;100550.81;4986696;28;20030;-86
2022/02/12 02:48:43;;;;;;;1.17;0.70;;;;;;;7.24;100.00;100540.59;4985115;28;20108;-85
2022/02/12 02:56:37;;;;;;;0.40;0.40;;;;;;;7.38;100.00;100553.38;4988287;28;20056;-85
2022/02/12 02:59:03;;;;;;;0.55;0.55;;;;;;;7.41;100.00;100552.19;4959195;28;20042;-86
2022/02/12 03:01:29;;;;;;;0.50;0.50;;;;;;;7.44;100.00;100565.28;5006656;28;20044;-84
2022/02/12 03:03:55;;;;;;;0.43;0.43;;;;;;;7.43;100.00;100551.03;4976746;28;20124;-85
2022/02/12 03:06:24;;;;;;;15.40;0.88;;;;;;;7.45;100.00;100542.84;4967891;28;20051;-85
2022/02/12 03:08:50;;;;;;;0.50;0.50;;;;;;;7.39;100.00;100528.28;4992969;28;20025;-84
2022/02/12 03:11:17;;;;;;;0.50;0.50;;;;;;;7.42;100.00;100536.00;4986489;28;20048;-86
2022/02/12 03:13:45;;;;;;;0.50;0.50;;;;;;;7.38;100.00;100525.75;5004808;28;20036;-84
2022/02/12 03:16:11;;;;;;;1.77;0.70;;;;;;;7.50;100.00;100535.19;4998852;28;20411;-86
2022/02/12 03:18:38;;;;;;;0.82;0.80;;;;;;;7.45;100.00;100516.09;5008670;28;20033;-84
2022/02/12 03:21:04;;;;;;;0.80;0.60;;;;;;;7.53;100.00;100526.00;4993186;28;20026;-85
2022/02/12 03:23:30;;;;;;;1.55;0.73;;;;;;;7.54;100.00;100508.94;4991434;28;20033;-85
2022/02/12 03:25:55;;;;;;;0.40;0.40;;;;;;;7.56;100.00;100505.09;5003262;28;20105;-86
2022/02/12 03:28:21;;;;;;;2.33;0.68;;;;;;;7.57;100.00;100503.25;4981803;28;20045;-85
2022/02/12 03:30:47;;;;;;;0.52;0.50;;;;;;;7.57;100.00;100501.44;4965838;28;20483;-83
2022/02/12 03:33:13;;;;;;;0.63;0.55;;;;;;;7.63;100.00;100506.13;4989880;28;20057;-85
2022/02/12 03:35:39;;;;;;;1.88;0.75;;;;;;;7.63;100.00;100495.44;4987208;28;20034;-84
2022/02/12 03:38:26;;;;;;;0.40;0.40;;;;;;;7.68;100.00;100492.28;4974463;28;20033;-85
2022/02/12 03:41:00;;;;;;;0.50;0.50;;;;;;;7.66;100.00;100489.75;4990526;28;20036;-85
2022/02/12 03:43:37;;;;;;;1.75;0.57;;;;;;;7.68;100.00;100486.94;4991823;28;20104;-84
2022/02/12 03:46:04;;;;;;;0.40;0.40;;;;;;;7.67;100.00;100472.72;4974102;28;20034;-85
2022/02/12 03:48:29;;;;;;;0.40;0.40;;;;;;;7.71;100.00;100467.84;4993250;28;20042;-86
2022/02/12 03:50:55;;;;;;;0.50;0.50;;;;;;;7.74;100.00;100456.81;5006468;28;20064;-86
2022/02/12 03:53:21;;;;;;;0.40;0.40;;;;;;;7.77;100.00;100461.84;4989527;28;20491;-83
2022/02/12 03:55:47;;;;;;;0.40;0.40;;;;;;;7.77;100.00;100456.47;5006467;28;20030;-83
2022/02/12 03:58:15;;;;;;;0.50;0.50;;;;;;;7.81;100.00;100459.69;5002708;28;20373;-85
2022/02/12 04:00:42;;;;;;;1.00;0.40;;;;;;;7.78;100.00;100447.47;4984623;28;20046;-84
2022/02/12 04:03:08;;;;;;;0.50;0.50;;;;;;;7.84;100.00;100445.97;4992795;28;20350;-86
2022/02/12 04:05:35;;;;;;;0.70;0.70;;;;;;;7.85;100.00;100448.47;4988918;28;20117;-82
2022/02/12 04:08:00;;;;;;;0.40;0.40;;;;;;;7.80;100.00;100445.44;4974292;28;20165;-86
2022/02/12 04:10:27;;;;;;;2.08;0.85;;;;;;;7.85;100.00;100442.28;4983429;28;20033;-85
2022/02/12 04:12:53;;;;;;;0.40;0.40;;;;;;;7.88;100.00;100442.78;4991138;28;20045;-84
2022/02/12 04:15:19;;;;;;;0.50;0.50;;;;;;;7.88;100.00;100445.44;4976351;28;20037;-84
2022/02/12 04:17:46;;;;;;;0.40;0.40;;;;;;;7.88;100.00;100441.94;4991526;28;22157;-86
2022/02/12 04:20:14;;;;;;;0.50;0.50;;;;;;;7.90;100.00;100443.44;4992434;28;20041;-85
2022/02/12 04:22:41;;;;;;;0.40;0.40;;;;;;;7.91;100.00;100452.31;4986791;28;20030;-85
2022/02/12 04:25:09;;;;;;;0.40;0.40;;;;;;;7.82;100.00;100432.75;5005670;28;20480;-82
2022/02/12 04:27:35;;;;;;;0.40;0.40;;;;;;;7.90;100.00;100450.66;4988118;28;20018;-84
2022/02/12 04:30:03;;;;;;;0.40;0.40;;;;;;;7.90;100.00;100447.97;4982747;28;20026;-84
2022/02/12 04:32:28;;;;;;;0.40;0.40;;;;;;;7.90;100.00;100434.59;4966123;28;20041;-84
2022/02/12 04:35:08;;;;;;;0.50;0.50;;;;;;;7.90;100.00;100418.53;4987996;28;20030;-81
2022/02/12 04:37:34;;;;;;;0.40;0.40;;;;;;;7.94;100.00;100441.28;4989817;28;20038;-85
2022/02/12 04:40:00;;;;;;;0.40;0.40;;;;;;;7.90;100.00;100431.91;4991569;28;20048;-85
2022/02/12 04:42:26;;;;;;;0.40;0.40;;;;;;;7.97;100.00;100440.13;4972646;28;20033;-83
2022/02/12 04:44:52;;;;;;;0.45;0.45;;;;;;;7.89;100.00;100431.09;4973180;28;20033;-84
2022/02/12 04:47:19;;;;;;;0.40;0.40;;;;;;;7.97;100.00;100440.97;4974885;28;20025;-82
2022/02/12 04:49:46;;;;;;;0.40;0.40;;;;;;;8.00;100.00;100421.06;4974552;28;20473;-83
2022/02/12 04:52:14;;;;;;;0.40;0.40;;;;;;;7.98;100.00;100415.03;4976291;28;20038;-85
2022/02/12 04:54:40;;;;;;;0.40;0.40;;;;;;;8.01;100.00;100406.66;5005364;28;20034;-84
2022/02/12 04:57:06;;;;;;;0.40;0.40;;;;;;;8.01;100.00;100398.63;4969735;28;20509;-83
2022/02/12 04:59:32;;;;;;;0.40;0.40;;;;;;;8.05;100.00;100403.47;4988419;28;20045;-83
2022/02/12 05:01:58;;;;;;;0.40;0.40;;;;;;;8.06;100.00;100390.91;4984090;28;20087;-83
2022/02/12 05:04:24;;;;;;;0.40;0.40;;;;;;;8.06;100.00;100396.28;4986670;28;20680;-83
2022/02/12 05:06:53;;;;;;;0.40;0.40;;;;;;;8.02;100.00;100389.56;4967803;28;20037;-83
2022/02/12 05:09:19;;;;;;;0.40;0.40;;;;;;;8.08;100.00;100399.63;4982532;28;20045;-84
2022/02/12 05:11:46;;;;;;;0.50;0.50;;;;;;;8.04;100.00;100393.75;4968143;28;20492;-83
2022/02/12 05:14:16;;;;;;;0.40;0.40;;;;;;;8.06;100.00;100398.94;4987102;28;20042;-84
2022/02/12 05:16:42;;;;;;;0.40;0.40;;;;;;;8.07;100.00;100393.44;4982868;28;20041;-84
2022/02/12 05:19:08;;;;;;;0.40;0.40;;;;;;;8.09;100.00;100394.06;4961301;28;20052;-81
2022/02/12 05:21:34;;;;;;;0.40;0.40;;;;;;;8.10;100.00;100387.75;4982448;28;20119;-84
2022/02/12 05:24:00;;;;;;;0.43;0.43;;;;;;;8.10;100.00;100385.06;4950571;28;20053;-85
2022/02/12 05:26:27;;;;;;;0.40;0.40;;;;;;;8.11;100.00;100392.06;4982336;28;20059;-85
2022/02/12 05:28:53;;;;;;;0.50;0.50;;;;;;;8.11;100.00;100384.03;4981776;28;20056;-84
2022/02/12 05:31:19;;;;;;;0.40;0.40;;;;;;;8.12;100.00;100382.19;4982654;28;20049;-83
2022/02/12 05:33:44;;;;;;;0.40;0.40;;;;;;;8.10;100.00;100382.38;4983310;28;20041;-85
2022/02/12 05:36:11;;;;;;;0.40;0.40;;;;;;;8.02;100.00;100373.50;4967481;28;20486;-84
2022/02/12 05:38:41;;;;;;;0.40;0.40;;;;;;;8.10;100.00;100371.66;4982813;28;20030;-84
2022/02/12 05:41:12;;;;;;;0.40;0.40;;;;;;;8.08;100.00;100372.84;4967540;28;20091;-85
2022/02/12 05:43:38;;;;;;;0.50;0.50;;;;;;;8.05;100.00;100367.84;4997075;28;20023;-84
2022/02/12 05:46:05;;;;;;;0.40;0.40;;;;;;;8.06;100.00;100374.84;4968858;28;20064;-85
2022/02/12 05:48:30;;;;;;;0.40;0.40;;;;;;;8.09;100.00;100372.66;4988347;28;20033;-81
2022/02/12 05:50:56;;;;;;;0.40;0.40;;;;;;;8.09;100.00;100364.63;5003315;28;20080;-85
2022/02/12 05:53:23;;;;;;;0.50;0.50;;;;;;;8.10;100.00;100352.94;4955662;28;20113;-84
2022/02/12 05:55:49;;;;;;;0.45;0.45;;;;;;;8.11;100.00;100357.25;4990220;28;20026;-84
2022/02/12 05:58:16;;;;;;;0.40;0.40;;;;;;;8.12;100.00;100355.41;4970700;28;20088;-85
2022/02/12 06:00:42;;;;;;;0.50;0.50;;;;;;;8.13;100.00;100344.53;4987153;28;20499;-84
2022/02/12 06:03:08;;;;;;;0.43;0.43;;;;;;;8.18;100.00;100351.22;4989191;28;20033;-84
2022/02/12 06:05:34;;;;;;;0.40;0.40;;;;;;;8.18;100.00;100349.41;4987957;28;20054;-85
2022/02/12 06:08:01;;;;;;;0.47;0.47;;;;;;;8.16;100.00;100354.09;4958846;28;20049;-85
2022/02/12 06:10:27;;;;;;;0.43;0.43;;;;;;;8.18;100.00;100341.38;5005767;28;20415;-84
2022/02/12 06:12:54;;;;;;;0.50;0.50;;;;;;;8.16;100.00;100338.00;5002479;28;20562;-83
2022/02/12 06:15:19;;;;;;;0.50;0.50;;;;;;;8.04;100.00;100336.69;4994572;28;20107;-85
2022/02/12 06:17:45;;;;;;;0.50;0.50;;;;;;;8.02;100.00;100341.38;4973813;28;20042;-85
2022/02/12 06:20:11;;;;;;;0.40;0.40;;;;;;;7.82;100.00;100324.84;4956046;28;20042;-84
2022/02/12 06:22:36;;;;;;;0.50;0.50;;;;;;;7.70;100.00;100324.38;4988771;28;20089;-84
2022/02/12 06:25:03;;;;;;;0.43;0.43;;;;;;;7.54;100.00;100305.59;4986435;28;20036;-85
2022/02/12 06:27:28;;;;;;;0.40;0.40;;;;;;;7.56;100.00;100320.50;5006494;28;20112;-84
2022/02/12 06:29:54;;;;;;;0.50;0.50;;;;;;;7.36;100.00;100284.41;4991996;28;20453;-85
2022/02/12 06:32:20;;;;;;;0.45;0.45;;;;;;;7.49;100.00;100320.34;4970821;28;20044;-84
2022/02/12 06:34:46;;;;;;;0.40;0.40;;;;;;;7.46;100.00;100314.47;4990799;28;20056;-84
2022/02/12 06:37:12;;;;;;;0.50;0.50;;;;;;;7.56;100.00;100308.97;4992610;28;20403;-84
2022/02/12 06:39:37;;;;;;;0.50;0.50;;;;;;;7.61;100.00;100291.41;4976953;28;20472;-84
2022/02/12 06:42:03;;;;;;;0.40;0.40;;;;;;;7.62;100.00;100270.81;5006314;28;20033;-84
2022/02/12 06:44:29;;;;;;;0.50;0.50;;;;;;;7.72;100.00;100282.19;4991317;28;20037;-83
2022/02/12 06:46:55;;;;;;;0.50;0.50;;;;;;;7.81;100.00;100283.03;4994627;28;20114;-84
2022/02/12 06:49:20;;;;;;;0.40;0.40;;;;;;;7.88;100.00;100281.31;4976393;28;20496;-83
2022/02/12 06:51:46;;;;;;;0.50;0.50;;;;;;;7.88;100.00;100276.81;4988078;28;20030;-84
2022/02/12 06:54:12;;;;;;;0.50;0.50;;;;;;;7.95;100.00;100281.50;4989565;28;20076;-83
2022/02/12 06:56:37;;;;;;;0.40;0.40;;;;;;;7.96;100.00;100284.00;5001461;28;20068;-82
2022/02/12 06:59:03;;;;;;;0.50;0.50;;;;;;;7.98;100.00;100286.50;4992332;28;20080;-81
2022/02/12 07:01:29;;;;;;;0.43;0.43;;;;;;;7.96;100.00;100283.16;4994760;28;20041;-84
2022/02/12 07:03:55;;;;;;;2.85;0.50;;;;;;;7.95;100.00;100281.50;4991439;28;20476;-86
2022/02/12 07:06:21;;;;;;;2.35;0.90;;;;;;;7.74;100.00;100237.38;4982478;28;20105;-85
2022/02/12 07:08:49;;;;;;;0.55;0.55;;;;;;;7.89;100.00;100278.50;4992504;28;20185;-85
2022/02/12 07:11:15;;;;;;;0.40;0.40;;;;;;;7.85;100.00;100270.97;4976913;28;20480;-84
2022/02/12 07:13:41;;;;;;;0.40;0.40;;;;;;;7.80;100.00;100265.28;4989257;28;20030;-85
2022/02/12 07:16:06;;;;;;;0.40;0.40;;;;;;;7.71;100.00;100272.50;4974462;28;20033;-83
2022/02/12 07:18:32;;;;;;;0.50;0.50;;;;;;;7.49;100.00;100255.31;4990880;28;20034;-85
2022/02/12 07:20:58;;;;;;;0.50;0.50;;;;;;;7.50;100.00;100283.72;4984393;28;20469;-85
2022/02/12 07:23:23;;;;;;;0.40;0.40;;;;;;;7.37;100.00;100273.50;4989023;28;20040;-85
2022/02/12 07:25:54;;;;;;;0.50;0.50;;;;;;;7.36;100.00;100271.03;4969573;28;20412;-81
2022/02/12 07:28:20;;;;;;;0.50;0.50;;;;;;;7.35;100.00;100275.50;4985941;28;20077;-85
2022/02/12 07:30:47;;;;;;;0.47;0.47;;;;;;;7.36;100.00;100276.38;4984721;28;20569;-84
2022/02/12 07:33:13;;;;;;;0.40;0.40;;;;;;;7.32;100.00;100280.38;4984523;28;20184;-85
2022/02/12 07:35:49;;;;;;;0.50;0.50;;;;;;;7.29;100.00;100280.69;4983940;28;20591;-85
2022/02/12 07:38:15;;;;;;;0.60;0.60;;;;;;;7.23;100.00;100276.84;4983699;28;20116;-85
2022/02/12 07:40:41;;;;;;;0.40;0.40;;;;;;;7.12;100.00;100279.84;4976824;28;20040;-85
2022/02/12 07:43:06;;;;;;;0.50;0.50;;;;;;;7.02;100.00;100277.34;4985126;28;20381;-85
2022/02/12 07:45:32;;;;;;;0.50;0.50;;;;;;;6.95;100.00;100255.75;4972299;28;20029;-85
2022/02/12 07:47:58;;;;;;;0.40;0.40;;;;;;;6.98;100.00;100257.25;5002286;28;20389;-84
2022/02/12 07:50:24;;;;;;;0.40;0.40;;;;;;;7.09;100.00;100264.13;5001261;28;20066;-86
2022/02/12 07:52:51;;;;;;;0.45;0.45;;;;;;;7.12;100.00;100259.31;4992632;28;20077;-85
2022/02/12 07:55:18;;;;;;;0.50;0.50;;;;;;;7.16;100.00;100259.78;4990122;28;20064;-85
2022/02/12 07:57:43;;;;;;;0.50;0.50;;;;;;;7.16;100.00;100262.47;5009763;28;20041;-85
2022/02/12 08:00:10;;;;;;;0.60;0.60;;;;;;;7.12;100.00;100261.13;4952959;28;20038;-84
2022/02/12 08:02:35;;;;;;;0.50;0.50;;;;;;;7.25;100.00;100269.47;4986255;28;20132;-86
2022/02/12 08:05:02;;;;;;;0.40;0.40;;;;;;;7.23;100.00;100263.50;5003107;28;20117;-85
2022/02/12 08:07:31;;;;;;;0.40;0.40;;;;;;;7.20;100.00;100261.97;4985734;28;20117;-82
2022/02/12 08:09:58;;;;;;;2.22;0.85;;;;;;;7.22;100.00;100251.09;4989391;28;20477;-85
2022/02/12 08:12:24;;;;;;;0.52;0.52;;;;;;;7.32;100.00;100259.81;4971479;28;20023;-85
2022/02/12 08:14:52;;;;;;;0.40;0.40;;;;;;;7.39;100.00;100273.34;4965832;28;20133;-85
2022/02/12 08:17:19;;;;;;;0.40;0.40;;;;;;;7.47;100.00;100271.50;4992236;28;20225;-84
2022/02/12 08:19:47;;;;;;;0.63;0.63;;;;;;;7.52;100.00;100260.31;4958763;28;20037;-84
2022/02/12 08:22:14;;;;;;;1.15;0.60;;;;;;;7.60;100.00;100270.19;4991194;28;20034;-85
2022/02/12 08:24:40;;;;;;;0.43;0.43;;;;;;;7.64;100.00;100263.47;4978425;28;20175;-85
2022/02/12 08:27:09;;;;;;;1.25;0.93;;;;;;;7.65;100.00;100273.19;4974944;28;20121;-84
2022/02/12 08:29:36;;;;;;;0.30;0.30;;;;;;;7.62;100.00;100265.47;4990032;28;20068;-85
2022/02/12 08:32:02;;;;;;;0.68;0.68;;;;;;;7.53;100.00;100278.03;4973825;28;20033;-85
2022/02/12 08:34:29;;;;;;;0.70;0.60;;;;;;;7.53;100.00;100277.19;4992650;28;20037;-84
2022/02/12 08:36:56;;;;;;;1.20;0.68;;;;;;;7.54;100.00;100257.44;4954593;28;20038;-84
2022/02/12 08:39:22;;;;;;;0.50;0.50;;;;;;;7.66;100.00;100272.16;5000574;28;20369;-85
2022/02/12 08:41:51;;;;;;;0.50;0.50;;;;;;;7.82;100.00;100276.66;4989070;28;20033;-85
2022/02/12 08:44:19;;;;;;;1.20;0.90;;;;;;;7.90;100.00;100263.25;4986905;28;20128;-84
2022/02/12 08:46:46;;;;;;;0.50;0.50;;;;;;;8.08;100.00;100276.44;5011530;28;20113;-85
2022/02/12 08:49:12;;;;;;;0.45;0.45;;;;;;;8.19;100.00;100277.91;4972168;28;20066;-85
2022/02/12 08:51:39;;;;;;;0.50;0.50;;;;;;;8.21;100.00;100279.41;5006098;28;20025;-85
2022/02/12 08:54:05;;;;;;;0.47;0.47;;;;;;;8.24;100.00;100284.44;4967979;28;20037;-84
2022/02/12 08:56:35;;;;;;;0.40;0.40;;;;;;;8.26;100.00;100279.75;5000263;28;20026;-85
2022/02/12 08:59:03;;;;;;;0.98;0.60;;;;;;;8.26;100.00;100277.06;4989367;28;20025;-85
2022/02/12 09:01:29;;;;;;;0.50;0.50;;;;;;;8.28;100.00;100272.38;4960142;28;20065;-85
2022/02/12 09:03:55;;;;;;;0.40;0.40;;;;;;;8.33;100.00;100270.00;4985337;28;20029;-84
2022/02/12 09:06:21;;;;;;;2.20;0.90;;;;;;;8.32;100.00;100260.28;4973440;28;20034;-82
2022/02/12 09:08:51;;;;;;;0.60;0.60;;;;;;;8.38;100.00;100272.16;4969994;28;20034;-86
2022/02/12 09:11:21;;;;;;;0.50;0.50;;;;;;;8.50;100.00;100269.97;4965887;28;21891;-86
2022/02/12 09:13:47;;;;;;;0.40;0.40;;;;;;;8.60;100.00;100254.53;4989004;28;20037;-84
2022/02/12 09:16:13;;;;;;;0.50;0.50;;;;;;;8.72;100.00;100252.28;4989573;28;20496;-85
2022/02/12 09:18:39;;;;;;;1.13;0.57;;;;;;;8.85;100.00;100249.84;4949670;28;20045;-83
2022/02/12 09:21:04;;;;;;;0.40;0.40;;;;;;;8.87;100.00;100249.69;4957771;28;20030;-85
2022/02/12 09:23:30;;;;;;;0.50;0.50;;;;;;;9.23;100.00;100260.66;4991072;28;20476;-84
2022/02/12 09:25:56;;;;;;;1.73;0.60;;;;;;;9.18;100.00;100246.94;4974375;28;20452;-85
2022/02/12 09:28:21;;;;;;;0.50;0.50;;;;;;;9.01;100.00;100252.41;4989187;28;20029;-84
2022/02/12 09:30:57;;;;;;;;;;;;;;;;;;;;;
2022/02/12 09:33:43;;;;;;;0.70;0.70;;;;;;;9.02;100.00;100263.97;4975724;28;20034;-85
2022/02/12 09:36:09;;;;;;;0.65;0.65;;;;;;;8.87;100.00;100255.03;4970996;28;20091;-85
2022/02/12 09:38:34;;;;;;;0.47;0.47;;;;;;;8.88;100.00;100276.28;4989575;28;20438;-84
2022/02/12 09:41:00;;;;;;;3.15;0.95;;;;;;;8.82;100.00;100266.28;4984305;28;20037;-82
2022/02/12 09:43:28;;;;;;;0.65;0.60;;;;;;;8.88;100.00;100264.75;4971165;28;20061;-82
2022/02/12 09:46:17;;;;;;;0.60;0.60;;;;;;;9.02;100.00;100261.28;4958859;28;20026;-84
2022/02/12 09:48:45;;;;;;;0.52;0.52;;;;;;;9.06;100.00;100269.84;4990285;28;20042;-85
2022/02/12 09:51:12;;;;;;;0.70;0.70;;;;;;;9.19;100.00;100280.81;4974433;28;20034;-85
2022/02/12 09:53:38;;;;;;;1.27;0.60;;;;;;;9.25;100.00;100270.19;5007212;28;20033;-85
2022/02/12 09:56:05;;;;;;;0.57;0.55;;;;;;;9.37;100.00;100267.09;4992073;28;20050;-86
2022/02/12 09:58:30;;;;;;;0.73;0.73;;;;;;;9.36;100.00;100278.81;4973255;28;20100;-85
2022/02/12 10:00:56;;;;;;;0.40;0.40;;;;;;;9.50;100.00;100274.50;4973996;28;20033;-85
2022/02/12 10:03:21;;;;;;;0.70;0.70;;;;;;;9.57;100.00;100259.38;4970647;28;20041;-84
2022/02/12 10:05:53;;;;;;;0.57;0.57;;;;;;;9.72;100.00;100275.53;4959068;28;20032;-85
2022/02/12 10:08:19;;;;;;;0.60;0.60;;;;;;;9.91;100.00;100270.44;4974274;28;20141;-86
2022/02/12 10:10:52;;;;;;;1.05;0.80;;;;;;;10.20;100.00;100255.38;4968477;28;20034;-84
2022/02/12 10:13:30;;;;;;;0.50;0.50;;;;;;;10.47;100.00;100248.50;4998095;28;20494;-83
2022/02/12 10:15:56;;;;;;;0.80;0.80;;;;;;;10.98;100.00;100248.50;4977298;28;20060;-83
2022/02/12 10:18:24;;;;;;;1.10;0.93;;;;;;;11.47;100.00;100248.75;4984535;28;20021;-83
2022/02/12 10:20:53;;;;;;;2.55;1.35;;;;;;;11.91;100.00;100261.97;4967922;28;20464;-83
2022/02/12 10:23:30;;;;;;;0.63;0.63;;;;;;;12.35;100.00;100257.25;5009666;28;20025;-83
2022/02/12 10:26:02;;;;;;;1.00;0.75;;;;;;;12.43;100.00;100247.09;4974626;28;20030;-88
2022/02/12 10:28:31;;;;;;;1.15;0.93;;;;;;;12.69;100.00;100264.44;4997652;28;20088;-83
2022/02/12 10:31:01;;;;;;;1.48;0.70;;;;;;;12.57;100.00;100253.41;4972580;28;20046;-83
2022/02/12 10:33:28;;;;;;;0.60;0.60;;;;;;;12.50;100.00;100241.75;4966631;28;20061;-83
2022/02/12 10:35:59;;;;;;;0.70;0.70;;;;;;;12.14;100.00;100253.59;5004303;28;20026;-83
2022/02/12 10:38:26;;;;;;;1.17;1.08;;;;;;;11.77;100.00;100234.03;4975583;28;20026;-84
2022/02/12 10:41:17;;;;;;;1.63;1.10;;;;;;;11.66;100.00;100248.06;4987687;28;20030;-83
2022/02/12 10:43:45;;;;;;;2.28;1.10;;;;;;;11.32;100.00;100249.63;4984709;28;20042;-83
2022/02/12 10:46:11;;;;;;;4.03;1.15;;;;;;;11.08;100.00;100250.03;4999071;28;20396;-83
2022/02/12 10:48:40;;;;;;;7.10;1.00;;;;;;;10.87;100.00;100265.09;4973043;28;20465;-83
2022/02/12 10:51:16;;;;;;;3.92;1.08;;;;;;;10.33;100.00;100250.19;4960362;28;20092;-82
2022/02/12 10:54:05;;;;;;;3.50;1.05;;;;;;;9.84;100.00;100252.56;4997354;28;20129;-80
2022/02/12 10:56:47;;;;;;;1.13;0.82;;;;;;;9.59;100.00;100260.84;5010461;28;20105;-83
2022/02/12 10:59:14;;;;;;;4.00;0.90;;;;;;;9.39;100.00;100252.50;5008046;28;20036;-84
2022/02/12 11:01:40;;;;;;;0.70;0.50;;;;;;;9.40;100.00;100285.53;4994436;28;20447;-84
2022/02/12 11:04:07;;;;;;;1.25;0.70;;;;;;;9.35;100.00;100261.06;5000760;28;20108;-89
2022/02/12 11:06:37;;;;;;;0.93;0.80;;;;;;;9.50;100.00;100277.19;4975068;28;20073;-83
2022/02/12 11:09:03;;;;;;;1.23;0.80;;;;;;;9.37;100.00;100269.78;4988194;28;20073;-85
2022/02/12 11:11:33;;;;;;;1.73;0.75;;;;;;;9.28;100.00;100278.88;4974520;28;20038;-85
2022/02/12 11:13:59;;;;;;;0.50;0.50;;;;;;;9.42;100.00;100288.84;4984582;28;20034;-84
2022/02/12 11:16:25;;;;;;;0.70;0.70;;;;;;;9.76;100.00;100276.81;4974124;28;20495;-85
2022/02/12 11:18:54;;;;;;;0.60;0.60;;;;;;;10.41;100.00;100276.16;4986291;28;20128;-87
2022/02/12 11:21:20;;;;;;;0.68;0.68;;;;;;;12.12;100.00;100273.69;4998436;28;20091;-86
2022/02/12 11:24:03;;;;;;;0.70;0.70;;;;;;;14.45;96.34;100270.34;5001426;28;20033;-89
2022/02/12 11:26:37;;;;;;;;;;;;;;;14.26;95.06;100272.06;4994256;28;20077;-84
2022/02/12 11:29:33;;;;;;;0.50;0.50;;;;;;;12.78;100.00;100265.94;4998418;28;19914;-91
2022/02/12 11:32:26;;;;;;;2.70;1.08;;;;;;;11.83;100.00;100268.31;4992601;28;20034;-85